Thunder radar more information blitzortung!


Radar de pluja more information rain snow radar


Visita la nostra xarxa de llocs de meteo:

Template documentation
and downloads

And another site



No particular awareness of the weather is required.    There are no Weather-warnings

Pagina Historial Weather Underground text

Diari Resum Agost 12, 2017 Unitats:  Tant    Imperial   Mètric
« Previous Dia
SegĂźent Dia »
Diari Setmana Mensual Anual Personalitzada
  Maxima: Minima: Media:
Temperatura: 85.3 °F /  29.6 °C 61.7 °F /  16.5 °C 75.2 °F /  24 °C
Punt de rosada: 61.2 °F /  16.2 °C 48.9 °F /  9.4 °C 54.5 °F /  12.5 °C
Humitat: 82 % 30 % 51 %
Wind Speed: 10.4 mph /  16.7 km/h - 3.9 mph /  6.3 km/h
RĂ fegues de vent: 10.4 mph /  16.7 km/h - -
Vent:- - SSW
Pression baro: 30.2 in /  1021.9 hPa 30 in /  1016.8 hPa -
Precipitacions: 0 in /  0.0 mm    
Historical Graphs
 
 
Dades de taula per Agost 12, 2017
Temps Temperatura Punt de rosada Pression baro Vent Wind Speed RĂ fegues de vent Humitat Rainfall Rate (Hourly)
00:00 63.9 °F /  17.7 °C 56.1 °F /  13.4 °C 30.1 in /  1019.9 hPa Calm     76 % 0 in /  0.0 mm
00:03 68 °F /  20.0 °C 55.4 °F /  13.0 °C 30.2 in /  1020.9 hPa NE 2.4 mph /  3.9 km/h 2.4 mph /  3.9 km/h 64 % 0 in /  0.0 mm
00:08 67.8 °F /  19.9 °C 55.6 °F /  13.1 °C 30.2 in /  1020.9 hPa NE 2.3 mph /  3.7 km/h   65 % 0 in /  0.0 mm
00:10 63.7 °F /  17.6 °C 56.3 °F /  13.5 °C 30.1 in /  1019.9 hPa Calm     77 % 0 in /  0.0 mm
00:20 63.5 °F /  17.5 °C 56.1 °F /  13.4 °C 30.1 in /  1018.8 hPa Calm     77 % 0 in /  0.0 mm
00:30 63.7 °F /  17.6 °C 56.3 °F /  13.5 °C 30.1 in /  1018.8 hPa SSW 1 mph /  1.6 km/h 1 mph /  1.6 km/h 77 % 0 in /  0.0 mm
00:40 63.3 °F /  17.4 °C 55.9 °F /  13.3 °C 30.1 in /  1019.9 hPa South 1 mph /  1.6 km/h 2 mph /  3.2 km/h 77 % 0 in /  0.0 mm
00:50 63 °F /  17.2 °C 55.9 °F /  13.3 °C 30.1 in /  1019.9 hPa Calm   2 mph /  3.2 km/h 78 % 0 in /  0.0 mm
01:00 63 °F /  17.2 °C 55.9 °F /  13.3 °C 30.1 in /  1019.9 hPa Calm     78 % 0 in /  0.0 mm
01:10 62.8 °F /  17.1 °C 55.8 °F /  13.2 °C 30.1 in /  1018.8 hPa Calm   1 mph /  1.6 km/h 78 % 0 in /  0.0 mm
01:20 62.6 °F /  17.0 °C 55.6 °F /  13.1 °C 30.1 in /  1019.9 hPa SSW 1 mph /  1.6 km/h 2 mph /  3.2 km/h 78 % 0 in /  0.0 mm
01:30 62.1 °F /  16.7 °C 55.6 °F /  13.1 °C 30.1 in /  1019.9 hPa Calm   3 mph /  4.8 km/h 79 % 0 in /  0.0 mm
01:40 62.1 °F /  16.7 °C 55.8 °F /  13.2 °C 30.1 in /  1019.9 hPa Calm     80 % 0 in /  0.0 mm
01:50 61.7 °F /  16.5 °C 55.6 °F /  13.1 °C 30.1 in /  1019.9 hPa SW 2 mph /  3.2 km/h 2 mph /  3.2 km/h 80 % 0 in /  0.0 mm
02:00 61.7 °F /  16.5 °C 55.8 °F /  13.2 °C 30.1 in /  1019.9 hPa Calm   1 mph /  1.6 km/h 81 % 0 in /  0.0 mm
02:10 61.7 °F /  16.5 °C 55.8 °F /  13.2 °C 30.1 in /  1019.9 hPa SW 1 mph /  1.6 km/h 2 mph /  3.2 km/h 81 % 0 in /  0.0 mm
02:20 61.9 °F /  16.6 °C 55.9 °F /  13.3 °C 30.2 in /  1020.9 hPa Calm     81 % 0 in /  0.0 mm
02:30 62.4 °F /  16.9 °C 56.8 °F /  13.8 °C 30.2 in /  1020.9 hPa Calm   1 mph /  1.6 km/h 82 % 0 in /  0.0 mm
02:40 62.8 °F /  17.1 °C 56.8 °F /  13.8 °C 30.2 in /  1020.9 hPa Calm   1 mph /  1.6 km/h 81 % 0 in /  0.0 mm
02:50 63.1 °F /  17.3 °C 57.2 °F /  14.0 °C 30.2 in /  1020.9 hPa Calm     81 % 0 in /  0.0 mm
03:00 64.4 °F /  18.0 °C 58.1 °F /  14.5 °C 30.2 in /  1020.9 hPa SE 1 mph /  1.6 km/h 2 mph /  3.2 km/h 80 % 0 in /  0.0 mm
03:10 64.9 °F /  18.3 °C 57.9 °F /  14.4 °C 30.2 in /  1020.9 hPa South 1 mph /  1.6 km/h 2 mph /  3.2 km/h 78 % 0 in /  0.0 mm
03:20 64.8 °F /  18.2 °C 57.7 °F /  14.3 °C 30.2 in /  1020.9 hPa SW 2 mph /  3.2 km/h 2 mph /  3.2 km/h 78 % 0 in /  0.0 mm
03:30 65.7 °F /  18.7 °C 58.6 °F /  14.8 °C 30.2 in /  1020.9 hPa Calm   2 mph /  3.2 km/h 78 % 0 in /  0.0 mm
03:40 66.4 °F /  19.1 °C 58.8 °F /  14.9 °C 30.2 in /  1020.9 hPa Calm   2 mph /  3.2 km/h 77 % 0 in /  0.0 mm
03:50 68.2 °F /  20.1 °C 60.1 °F /  15.6 °C 30.2 in /  1020.9 hPa SSW 1 mph /  1.6 km/h 1 mph /  1.6 km/h 75 % 0 in /  0.0 mm
04:00 68.7 °F /  20.4 °C 59.7 °F /  15.4 °C 30.2 in /  1020.9 hPa SSE 2 mph /  3.2 km/h 3 mph /  4.8 km/h 73 % 0 in /  0.0 mm
04:10 69.1 °F /  20.6 °C 59.4 °F /  15.2 °C 30.2 in /  1021.9 hPa SE 2 mph /  3.2 km/h 2 mph /  3.2 km/h 71 % 0 in /  0.0 mm
04:20 70.2 °F /  21.2 °C 60.3 °F /  15.7 °C 30.2 in /  1021.9 hPa SE 1 mph /  1.6 km/h 4 mph /  6.4 km/h 71 % 0 in /  0.0 mm
04:30 70.5 °F /  21.4 °C 59.9 °F /  15.5 °C 30.2 in /  1021.9 hPa SE 1 mph /  1.6 km/h 3 mph /  4.8 km/h 69 % 0 in /  0.0 mm
04:40 71.1 °F /  21.7 °C 60.1 °F /  15.6 °C 30.2 in /  1021.9 hPa ENE 3 mph /  4.8 km/h 3 mph /  4.8 km/h 68 % 0 in /  0.0 mm
04:50 71.1 °F /  21.7 °C 59.5 °F /  15.3 °C 30.2 in /  1021.9 hPa NNE 2 mph /  3.2 km/h 3 mph /  4.8 km/h 67 % 0 in /  0.0 mm
05:00 71.4 °F /  21.9 °C 59.9 °F /  15.5 °C 30.2 in /  1021.9 hPa NNE 2 mph /  3.2 km/h 5 mph /  8.0 km/h 67 % 0 in /  0.0 mm
05:10 72.7 °F /  22.6 °C 60.3 °F /  15.7 °C 30.2 in /  1021.9 hPa NE 1 mph /  1.6 km/h 4 mph /  6.4 km/h 65 % 0 in /  0.0 mm
05:20 73.6 °F /  23.1 °C 60.6 °F /  15.9 °C 30.2 in /  1021.9 hPa NE 1 mph /  1.6 km/h 3 mph /  4.8 km/h 64 % 0 in /  0.0 mm
05:30 72.9 °F /  22.7 °C 59.5 °F /  15.3 °C 30.2 in /  1021.9 hPa NNE 3 mph /  4.8 km/h 4 mph /  6.4 km/h 63 % 0 in /  0.0 mm
05:40 73.6 °F /  23.1 °C 60.6 °F /  15.9 °C 30.2 in /  1021.9 hPa NE 1 mph /  1.6 km/h 4 mph /  6.4 km/h 64 % 0 in /  0.0 mm
05:50 74.5 °F /  23.6 °C 61.2 °F /  16.2 °C 30.2 in /  1021.9 hPa NE 2 mph /  3.2 km/h 3 mph /  4.8 km/h 63 % 0 in /  0.0 mm
06:00 75.4 °F /  24.1 °C 60.4 °F /  15.8 °C 30.2 in /  1021.9 hPa NNE 2 mph /  3.2 km/h 3 mph /  4.8 km/h 60 % 0 in /  0.0 mm
11:07 74.1 °F /  23.4 °C 58.8 °F /  14.9 °C 30.2 in /  1020.9 hPa SE 3.5 mph /  5.6 km/h 3.5 mph /  5.6 km/h 59 % 0 in /  0.0 mm
11:12 75.7 °F /  24.3 °C 60.4 °F /  15.8 °C 30.2 in /  1020.9 hPa NNE 3.5 mph /  5.6 km/h 3.5 mph /  5.6 km/h 59 % 0 in /  0.0 mm
11:17 75.6 °F /  24.2 °C 59.4 °F /  15.2 °C 30.2 in /  1020.9 hPa NE 3.6 mph /  5.8 km/h 3.6 mph /  5.8 km/h 57 % 0 in /  0.0 mm
11:22 75.9 °F /  24.4 °C 59.5 °F /  15.3 °C 30.2 in /  1020.9 hPa NNW 3.5 mph /  5.6 km/h 3.5 mph /  5.6 km/h 57 % 0 in /  0.0 mm
11:27 76.3 °F /  24.6 °C 59.4 °F /  15.2 °C 30.2 in /  1020.9 hPa NNE 4.6 mph /  7.4 km/h 4.6 mph /  7.4 km/h 56 % 0 in /  0.0 mm
11:32 76.3 °F /  24.6 °C 58.8 °F /  14.9 °C 30.2 in /  1020.9 hPa ESE 5.8 mph /  9.3 km/h 5.8 mph /  9.3 km/h 55 % 0 in /  0.0 mm
11:37 77.2 °F /  25.1 °C 59.2 °F /  15.1 °C 30.2 in /  1020.9 hPa ENE 3.5 mph /  5.6 km/h 3.5 mph /  5.6 km/h 54 % 0 in /  0.0 mm
11:42 77.9 °F /  25.5 °C 58.3 °F /  14.6 °C 30.2 in /  1020.9 hPa SSW 4.3 mph /  6.9 km/h 4.3 mph /  6.9 km/h 51 % 0 in /  0.0 mm
11:47 77.5 °F /  25.3 °C 55.8 °F /  13.2 °C 30.2 in /  1020.9 hPa ESE 4.6 mph /  7.4 km/h 4.6 mph /  7.4 km/h 47 % 0 in /  0.0 mm
11:52 78.1 °F /  25.6 °C 56.8 °F /  13.8 °C 30.2 in /  1020.9 hPa South 2.3 mph /  3.7 km/h 2.3 mph /  3.7 km/h 48 % 0 in /  0.0 mm
11:57 79.2 °F /  26.2 °C 57.7 °F /  14.3 °C 30.2 in /  1020.9 hPa WSW 3.5 mph /  5.6 km/h 3.5 mph /  5.6 km/h 48 % 0 in /  0.0 mm
12:02 79.9 °F /  26.6 °C 57.7 °F /  14.3 °C 30.2 in /  1020.9 hPa SSW 7.8 mph /  12.6 km/h 7.8 mph /  12.6 km/h 47 % 0 in /  0.0 mm
12:07 79.9 °F /  26.6 °C 57.7 °F /  14.3 °C 30.2 in /  1020.9 hPa SW 3.5 mph /  5.6 km/h 3.5 mph /  5.6 km/h 47 % 0 in /  0.0 mm
12:12 79 °F /  26.1 °C 56.5 °F /  13.6 °C 30.2 in /  1020.9 hPa NE 4.6 mph /  7.4 km/h 4.6 mph /  7.4 km/h 46 % 0 in /  0.0 mm
12:17 79 °F /  26.1 °C 56.5 °F /  13.6 °C 30.2 in /  1020.9 hPa ESE 2.3 mph /  3.7 km/h 2.3 mph /  3.7 km/h 46 % 0 in /  0.0 mm
12:22 79.7 °F /  26.5 °C 57 °F /  13.9 °C 30.2 in /  1020.9 hPa NNW 2.3 mph /  3.7 km/h 2.3 mph /  3.7 km/h 46 % 0 in /  0.0 mm
12:27 80.4 °F /  26.9 °C 57 °F /  13.9 °C 30.2 in /  1020.9 hPa West 2.3 mph /  3.7 km/h 2.4 mph /  3.9 km/h 45 % 0 in /  0.0 mm
12:32 81.3 °F /  27.4 °C 57.4 °F /  14.1 °C 30.1 in /  1019.9 hPa WSW 5.6 mph /  9.0 km/h 5.6 mph /  9.0 km/h 44 % 0 in /  0.0 mm
12:34 81 °F /  27.2 °C 55.8 °F /  13.2 °C 30.1 in /  1019.9 hPa WSW 5.8 mph /  9.3 km/h 5.8 mph /  9.3 km/h 42 % 0 in /  0.0 mm
12:39 81.3 °F /  27.4 °C 56.7 °F /  13.7 °C 30.1 in /  1019.9 hPa WSW 4.9 mph /  7.9 km/h 4.9 mph /  7.9 km/h 43 % 0 in /  0.0 mm
12:44 81.5 °F /  27.5 °C 56.1 °F /  13.4 °C 30.1 in /  1019.9 hPa WSW 5.8 mph /  9.3 km/h 5.8 mph /  9.3 km/h 42 % 0 in /  0.0 mm
12:49 81 °F /  27.2 °C 55 °F /  12.8 °C 30.1 in /  1019.9 hPa West 5.8 mph /  9.3 km/h 5.8 mph /  9.3 km/h 41 % 0 in /  0.0 mm
12:54 81.9 °F /  27.7 °C 55.2 °F /  12.9 °C 30.1 in /  1019.9 hPa WSW 2.3 mph /  3.7 km/h 2.3 mph /  3.7 km/h 40 % 0 in /  0.0 mm
12:59 80.8 °F /  27.1 °C 54.1 °F /  12.3 °C 30.1 in /  1019.9 hPa WSW 2.3 mph /  3.7 km/h 2.3 mph /  3.7 km/h 40 % 0 in /  0.0 mm
13:04 81.1 °F /  27.3 °C 54.5 °F /  12.5 °C 30.1 in /  1019.9 hPa WNW 3.5 mph /  5.6 km/h 3.5 mph /  5.6 km/h 40 % 0 in /  0.0 mm
13:09 82.9 °F /  28.3 °C 56.1 °F /  13.4 °C 30.1 in /  1019.9 hPa East 3.5 mph /  5.6 km/h 3.5 mph /  5.6 km/h 40 % 0 in /  0.0 mm
13:14 82.8 °F /  28.2 °C 55.9 °F /  13.3 °C 30.1 in /  1019.9 hPa SSE 3.5 mph /  5.6 km/h 3.5 mph /  5.6 km/h 40 % 0 in /  0.0 mm
13:19 83.5 °F /  28.6 °C 55.9 °F /  13.3 °C 30.1 in /  1019.9 hPa South 3.5 mph /  5.6 km/h 3.5 mph /  5.6 km/h 39 % 0 in /  0.0 mm
13:24 83.1 °F /  28.4 °C 57 °F /  13.9 °C 30.1 in /  1019.9 hPa SSE 5.8 mph /  9.3 km/h 5.8 mph /  9.3 km/h 41 % 0 in /  0.0 mm
13:29 80.8 °F /  27.1 °C 55.6 °F /  13.1 °C 30.1 in /  1018.8 hPa East 6.9 mph /  11.1 km/h 6.9 mph /  11.1 km/h 42 % 0 in /  0.0 mm
13:34 79.7 °F /  26.5 °C 55.9 °F /  13.3 °C 30.1 in /  1018.8 hPa ENE 7.6 mph /  12.2 km/h 7.6 mph /  12.2 km/h 44 % 0 in /  0.0 mm
13:39 80.1 °F /  26.7 °C 56.1 °F /  13.4 °C 30.1 in /  1018.8 hPa ESE 9.2 mph /  14.8 km/h 9.2 mph /  14.8 km/h 44 % 0 in /  0.0 mm
13:44 79.7 °F /  26.5 °C 55.9 °F /  13.3 °C 30.1 in /  1018.8 hPa ESE 10.4 mph /  16.7 km/h 10.4 mph /  16.7 km/h 44 % 0 in /  0.0 mm
13:49 79 °F /  26.1 °C 55.2 °F /  12.9 °C 30.1 in /  1018.8 hPa SSE 9.2 mph /  14.8 km/h 9.2 mph /  14.8 km/h 44 % 0 in /  0.0 mm
13:54 79.5 °F /  26.4 °C 56.3 °F /  13.5 °C 30.1 in /  1018.8 hPa SE 5.8 mph /  9.3 km/h 5.8 mph /  9.3 km/h 45 % 0 in /  0.0 mm
13:59 80.1 °F /  26.7 °C 56.8 °F /  13.8 °C 30.1 in /  1019.9 hPa South 4.6 mph /  7.4 km/h 4.6 mph /  7.4 km/h 45 % 0 in /  0.0 mm
14:04 80.8 °F /  27.1 °C 56.8 °F /  13.8 °C 30.1 in /  1019.9 hPa SW 5.8 mph /  9.3 km/h 5.8 mph /  9.3 km/h 44 % 0 in /  0.0 mm
14:09 82 °F /  27.8 °C 57.4 °F /  14.1 °C 30.1 in /  1019.9 hPa SSW 8.1 mph /  13.0 km/h 8.1 mph /  13.0 km/h 43 % 0 in /  0.0 mm
14:14 82 °F /  27.8 °C 56.7 °F /  13.7 °C 30.1 in /  1019.9 hPa SSW 5.8 mph /  9.3 km/h 5.8 mph /  9.3 km/h 42 % 0 in /  0.0 mm
14:19 81.9 °F /  27.7 °C 57.2 °F /  14.0 °C 30.1 in /  1019.9 hPa WNW 4.6 mph /  7.4 km/h 4.6 mph /  7.4 km/h 43 % 0 in /  0.0 mm
14:24 83.5 °F /  28.6 °C 57.9 °F /  14.4 °C 30.1 in /  1019.9 hPa SW 8.1 mph /  13.0 km/h 8.1 mph /  13.0 km/h 42 % 0 in /  0.0 mm
14:29 83.3 °F /  28.5 °C 57.7 °F /  14.3 °C 30.1 in /  1018.8 hPa WNW 4.6 mph /  7.4 km/h 4.6 mph /  7.4 km/h 42 % 0 in /  0.0 mm
14:34 83.3 °F /  28.5 °C 57.7 °F /  14.3 °C 30.1 in /  1018.8 hPa SW 3.5 mph /  5.6 km/h 3.5 mph /  5.6 km/h 42 % 0 in /  0.0 mm
14:39 85.1 °F /  29.5 °C 58.1 °F /  14.5 °C 30.1 in /  1018.8 hPa WSW 5.9 mph /  9.5 km/h 5.9 mph /  9.5 km/h 40 % 0 in /  0.0 mm
14:44 84.6 °F /  29.2 °C 57.6 °F /  14.2 °C 30.1 in /  1018.8 hPa NW 3.5 mph /  5.6 km/h 3.5 mph /  5.6 km/h 40 % 0 in /  0.0 mm
14:49 83.5 °F /  28.6 °C 57.4 °F /  14.1 °C 30.1 in /  1018.8 hPa West 4 mph /  6.4 km/h 4 mph /  6.4 km/h 41 % 0 in /  0.0 mm
14:54 84.2 °F /  29.0 °C 56.7 °F /  13.7 °C 30.1 in /  1018.8 hPa SSW 3.5 mph /  5.6 km/h 3.5 mph /  5.6 km/h 39 % 0 in /  0.0 mm
14:59 82.6 °F /  28.1 °C 55 °F /  12.8 °C 30.1 in /  1018.8 hPa ENE 5.8 mph /  9.3 km/h 5.8 mph /  9.3 km/h 39 % 0 in /  0.0 mm
15:04 84.2 °F /  29.0 °C 55 °F /  12.8 °C 30.1 in /  1018.8 hPa SW 5.8 mph /  9.3 km/h 5.8 mph /  9.3 km/h 37 % 0 in /  0.0 mm
15:09 83.8 °F /  28.8 °C 54.9 °F /  12.7 °C 30.1 in /  1018.8 hPa SSW 6.9 mph /  11.1 km/h 6.9 mph /  11.1 km/h 37 % 0 in /  0.0 mm
15:14 82.8 °F /  28.2 °C 53.8 °F /  12.1 °C 30.1 in /  1018.8 hPa ESE 3.6 mph /  5.8 km/h 3.6 mph /  5.8 km/h 37 % 0 in /  0.0 mm
15:19 82.6 °F /  28.1 °C 53.8 °F /  12.1 °C 30.1 in /  1018.8 hPa South 4.6 mph /  7.4 km/h 4.6 mph /  7.4 km/h 37 % 0 in /  0.0 mm
15:24 84.2 °F /  29.0 °C 55 °F /  12.8 °C 30.1 in /  1018.8 hPa NW 2.3 mph /  3.7 km/h   37 % 0 in /  0.0 mm
15:29 82.6 °F /  28.1 °C 55 °F /  12.8 °C 30.1 in /  1018.8 hPa West 5.8 mph /  9.3 km/h 5.8 mph /  9.3 km/h 39 % 0 in /  0.0 mm
15:34 83.3 °F /  28.5 °C 55.8 °F /  13.2 °C 30.1 in /  1018.8 hPa SSW 4.6 mph /  7.4 km/h 5.4 mph /  8.7 km/h 39 % 0 in /  0.0 mm
15:39 83.8 °F /  28.8 °C 54 °F /  12.2 °C 30.1 in /  1018.8 hPa SSE 5.8 mph /  9.3 km/h 5.8 mph /  9.3 km/h 36 % 0 in /  0.0 mm
15:44 84.7 °F /  29.3 °C 54.1 °F /  12.3 °C 30.1 in /  1018.8 hPa SSE 3.5 mph /  5.6 km/h 3.5 mph /  5.6 km/h 35 % 0 in /  0.0 mm
15:49 83.8 °F /  28.8 °C 54.9 °F /  12.7 °C 30.1 in /  1018.8 hPa WSW 4.6 mph /  7.4 km/h 4.6 mph /  7.4 km/h 37 % 0 in /  0.0 mm
15:54 84.6 °F /  29.2 °C 53.1 °F /  11.7 °C 30.1 in /  1018.8 hPa SW 4.6 mph /  7.4 km/h 4.6 mph /  7.4 km/h 34 % 0 in /  0.0 mm
15:55 84.7 °F /  29.3 °C 54.1 °F /  12.3 °C 30.1 in /  1018.8 hPa SSE 6.9 mph /  11.1 km/h 6.9 mph /  11.1 km/h 35 % 0 in /  0.0 mm
16:00 84.7 °F /  29.3 °C 53.2 °F /  11.8 °C 30.1 in /  1017.8 hPa SW 8.7 mph /  14.0 km/h 8.7 mph /  14.0 km/h 34 % 0 in /  0.0 mm
16:05 84.6 °F /  29.2 °C 52.3 °F /  11.3 °C 30.1 in /  1017.8 hPa East 8.1 mph /  13.0 km/h 8.1 mph /  13.0 km/h 33 % 0 in /  0.0 mm
16:10 85.3 °F /  29.6 °C 52.2 °F /  11.2 °C 30.1 in /  1017.8 hPa South 8.1 mph /  13.0 km/h 8.1 mph /  13.0 km/h 32 % 0 in /  0.0 mm
16:15 85.3 °F /  29.6 °C 52.2 °F /  11.2 °C 30.1 in /  1017.8 hPa West 5.8 mph /  9.3 km/h 5.8 mph /  9.3 km/h 32 % 0 in /  0.0 mm
16:20 84.6 °F /  29.2 °C 50.5 °F /  10.3 °C 30.1 in /  1017.8 hPa SW 10.4 mph /  16.7 km/h 10.4 mph /  16.7 km/h 31 % 0 in /  0.0 mm
16:25 84.2 °F /  29.0 °C 50.4 °F /  10.2 °C 30.1 in /  1017.8 hPa SW 9.8 mph /  15.8 km/h 9.8 mph /  15.8 km/h 31 % 0 in /  0.0 mm
16:30 84.2 °F /  29.0 °C 50.4 °F /  10.2 °C 30.1 in /  1017.8 hPa SW 7.1 mph /  11.4 km/h 7.1 mph /  11.4 km/h 31 % 0 in /  0.0 mm
16:35 84.4 °F /  29.1 °C 49.6 °F /  9.8 °C 30.1 in /  1017.8 hPa South 8.1 mph /  13.0 km/h 8.1 mph /  13.0 km/h 30 % 0 in /  0.0 mm
16:40 84.6 °F /  29.2 °C 50.5 °F /  10.3 °C 30.1 in /  1017.8 hPa South 8.1 mph /  13.0 km/h 8.1 mph /  13.0 km/h 31 % 0 in /  0.0 mm
16:45 84.2 °F /  29.0 °C 50.4 °F /  10.2 °C 30.1 in /  1017.8 hPa SW 8.5 mph /  13.7 km/h 8.5 mph /  13.7 km/h 31 % 0 in /  0.0 mm
16:50 83.7 °F /  28.7 °C 49.8 °F /  9.9 °C 30.1 in /  1017.8 hPa West 8.1 mph /  13.0 km/h 8.1 mph /  13.0 km/h 31 % 0 in /  0.0 mm
16:55 84.6 °F /  29.2 °C 50.5 °F /  10.3 °C 30.1 in /  1017.8 hPa WSW 8.1 mph /  13.0 km/h 8.1 mph /  13.0 km/h 31 % 0 in /  0.0 mm
17:00 84 °F /  28.9 °C 50.2 °F /  10.1 °C 30.1 in /  1017.8 hPa WSW 4.6 mph /  7.4 km/h 4.6 mph /  7.4 km/h 31 % 0 in /  0.0 mm
17:05 84.2 °F /  29.0 °C 50.4 °F /  10.2 °C 30.1 in /  1017.8 hPa SW 8.1 mph /  13.0 km/h 8.1 mph /  13.0 km/h 31 % 0 in /  0.0 mm
17:10 84.4 °F /  29.1 °C 50.4 °F /  10.2 °C 30.1 in /  1017.8 hPa WSW 4.6 mph /  7.4 km/h 4.6 mph /  7.4 km/h 31 % 0 in /  0.0 mm
17:15 83.7 °F /  28.7 °C 49.8 °F /  9.9 °C 30.1 in /  1017.8 hPa WSW 5.8 mph /  9.3 km/h 5.8 mph /  9.3 km/h 31 % 0 in /  0.0 mm
17:20 82.8 °F /  28.2 °C 48.9 °F /  9.4 °C 30.1 in /  1017.8 hPa SSE 5.8 mph /  9.3 km/h 5.8 mph /  9.3 km/h 31 % 0 in /  0.0 mm
17:25 83.5 °F /  28.6 °C 50.5 °F /  10.3 °C 30.1 in /  1017.8 hPa West 4.6 mph /  7.4 km/h 4.6 mph /  7.4 km/h 32 % 0 in /  0.0 mm
17:30 83.5 °F /  28.6 °C 51.3 °F /  10.7 °C 30.1 in /  1017.8 hPa SW 8.1 mph /  13.0 km/h 8.1 mph /  13.0 km/h 33 % 0 in /  0.0 mm
17:35 82.9 °F /  28.3 °C 50.9 °F /  10.5 °C 30.1 in /  1017.8 hPa SW 5.8 mph /  9.3 km/h 5.8 mph /  9.3 km/h 33 % 0 in /  0.0 mm
17:40 83.1 °F /  28.4 °C 51.1 °F /  10.6 °C 30.1 in /  1017.8 hPa West 8.1 mph /  13.0 km/h 8.1 mph /  13.0 km/h 33 % 0 in /  0.0 mm
17:45 82.9 °F /  28.3 °C 51.6 °F /  10.9 °C 30.1 in /  1017.8 hPa WSW 5.8 mph /  9.3 km/h 5.8 mph /  9.3 km/h 34 % 0 in /  0.0 mm
17:50 82.8 °F /  28.2 °C 51.4 °F /  10.8 °C 30.1 in /  1017.8 hPa SW 6.9 mph /  11.1 km/h 6.9 mph /  11.1 km/h 34 % 0 in /  0.0 mm
17:55 82.2 °F /  27.9 °C 51.1 °F /  10.6 °C 30.1 in /  1017.8 hPa SSW 5.8 mph /  9.3 km/h 5.8 mph /  9.3 km/h 34 % 0 in /  0.0 mm
18:00 82 °F /  27.8 °C 50.9 °F /  10.5 °C 30.1 in /  1017.8 hPa SSW 6.9 mph /  11.1 km/h 6.9 mph /  11.1 km/h 34 % 0 in /  0.0 mm
18:05 82.2 °F /  27.9 °C 51.8 °F /  11.0 °C 30.1 in /  1017.8 hPa SSW 6.9 mph /  11.1 km/h 6.9 mph /  11.1 km/h 35 % 0 in /  0.0 mm
18:10 82 °F /  27.8 °C 51.6 °F /  10.9 °C 30.1 in /  1017.8 hPa SW 9.2 mph /  14.8 km/h 9.2 mph /  14.8 km/h 35 % 0 in /  0.0 mm
18:15 82.2 °F /  27.9 °C 51.8 °F /  11.0 °C 30 in /  1016.8 hPa SW 5.8 mph /  9.3 km/h 5.8 mph /  9.3 km/h 35 % 0 in /  0.0 mm
18:20 81.9 °F /  27.7 °C 52.3 °F /  11.3 °C 30 in /  1016.8 hPa SSW 5.8 mph /  9.3 km/h 5.8 mph /  9.3 km/h 36 % 0 in /  0.0 mm
18:25 81.3 °F /  27.4 °C 51.1 °F /  10.6 °C 30 in /  1016.8 hPa South 8.1 mph /  13.0 km/h 8.1 mph /  13.0 km/h 35 % 0 in /  0.0 mm
18:30 81.5 °F /  27.5 °C 52 °F /  11.1 °C 30.1 in /  1017.8 hPa SW 5.8 mph /  9.3 km/h 5.8 mph /  9.3 km/h 36 % 0 in /  0.0 mm
18:35 81.7 °F /  27.6 °C 52.2 °F /  11.2 °C 30.1 in /  1017.8 hPa SSE 3.8 mph /  6.1 km/h 3.8 mph /  6.1 km/h 36 % 0 in /  0.0 mm
18:40 82 °F /  27.8 °C 52.3 °F /  11.3 °C 30.1 in /  1017.8 hPa SW 7.1 mph /  11.4 km/h 7.1 mph /  11.4 km/h 36 % 0 in /  0.0 mm
18:45 81.5 °F /  27.5 °C 52 °F /  11.1 °C 30.1 in /  1017.8 hPa SSW 4.6 mph /  7.4 km/h 4.6 mph /  7.4 km/h 36 % 0 in /  0.0 mm
18:50 81 °F /  27.2 °C 51.4 °F /  10.8 °C 30.1 in /  1017.8 hPa SW 5.8 mph /  9.3 km/h 5.8 mph /  9.3 km/h 36 % 0 in /  0.0 mm
18:55 80.2 °F /  26.8 °C 51.6 °F /  10.9 °C 30.1 in /  1017.8 hPa SW 6.9 mph /  11.1 km/h 6.9 mph /  11.1 km/h 37 % 0 in /  0.0 mm
19:00 80.1 °F /  26.7 °C 52.2 °F /  11.2 °C 30.1 in /  1017.8 hPa South 4.6 mph /  7.4 km/h 4.6 mph /  7.4 km/h 38 % 0 in /  0.0 mm
19:05 80.6 °F /  27.0 °C 52 °F /  11.1 °C 30.1 in /  1017.8 hPa South 4.6 mph /  7.4 km/h 4.6 mph /  7.4 km/h 37 % 0 in /  0.0 mm
19:10 80.6 °F /  27.0 °C 52 °F /  11.1 °C 30.1 in /  1017.8 hPa West 4.6 mph /  7.4 km/h 4.6 mph /  7.4 km/h 37 % 0 in /  0.0 mm
19:15 80.4 °F /  26.9 °C 52.5 °F /  11.4 °C 30.1 in /  1017.8 hPa SW 3.5 mph /  5.6 km/h 3.6 mph /  5.8 km/h 38 % 0 in /  0.0 mm
19:20 80.2 °F /  26.8 °C 53.1 °F /  11.7 °C 30.1 in /  1017.8 hPa SSW 2.4 mph /  3.9 km/h 2.4 mph /  3.9 km/h 39 % 0 in /  0.0 mm
19:25 79.7 °F /  26.5 °C 52.5 °F /  11.4 °C 30.1 in /  1017.8 hPa SW 5.8 mph /  9.3 km/h 5.8 mph /  9.3 km/h 39 % 0 in /  0.0 mm
19:30 79.5 °F /  26.4 °C 52.3 °F /  11.3 °C 30.1 in /  1017.8 hPa SW 3.5 mph /  5.6 km/h 3.5 mph /  5.6 km/h 39 % 0 in /  0.0 mm
19:35 79.2 °F /  26.2 °C 52.2 °F /  11.2 °C 30.1 in /  1017.8 hPa South 4.6 mph /  7.4 km/h 4.6 mph /  7.4 km/h 39 % 0 in /  0.0 mm
19:40 78.6 °F /  25.9 °C 51.6 °F /  10.9 °C 30.1 in /  1017.8 hPa WSW 5.8 mph /  9.3 km/h 5.8 mph /  9.3 km/h 39 % 0 in /  0.0 mm
19:45 78.1 °F /  25.6 °C 51.1 °F /  10.6 °C 30.1 in /  1018.8 hPa SW 5.8 mph /  9.3 km/h 5.8 mph /  9.3 km/h 39 % 0 in /  0.0 mm
19:50 77.9 °F /  25.5 °C 51.6 °F /  10.9 °C 30.1 in /  1018.8 hPa SSW 9.2 mph /  14.8 km/h 9.2 mph /  14.8 km/h 40 % 0 in /  0.0 mm
19:55 77.4 °F /  25.2 °C 51.1 °F /  10.6 °C 30.1 in /  1018.8 hPa SW 8.1 mph /  13.0 km/h 8.1 mph /  13.0 km/h 40 % 0 in /  0.0 mm
20:00 77 °F /  25.0 °C 51.4 °F /  10.8 °C 30.1 in /  1017.8 hPa SW 4.6 mph /  7.4 km/h 4.6 mph /  7.4 km/h 41 % 0 in /  0.0 mm
20:05 76.6 °F /  24.8 °C 51.8 °F /  11.0 °C 30.1 in /  1017.8 hPa SW 5.8 mph /  9.3 km/h 5.8 mph /  9.3 km/h 42 % 0 in /  0.0 mm
20:10 76.3 °F /  24.6 °C 51.4 °F /  10.8 °C 30.1 in /  1017.8 hPa SW 5.8 mph /  9.3 km/h 5.8 mph /  9.3 km/h 42 % 0 in /  0.0 mm
20:15 75.7 °F /  24.3 °C 51.6 °F /  10.9 °C 30.1 in /  1017.8 hPa WSW 8.1 mph /  13.0 km/h 8.1 mph /  13.0 km/h 43 % 0 in /  0.0 mm
20:20 75.4 °F /  24.1 °C 51.3 °F /  10.7 °C 30.1 in /  1017.8 hPa SSW 5.8 mph /  9.3 km/h 5.8 mph /  9.3 km/h 43 % 0 in /  0.0 mm
20:25 75.2 °F /  24.0 °C 51.8 °F /  11.0 °C 30.1 in /  1017.8 hPa SSW 8.1 mph /  13.0 km/h 8.1 mph /  13.0 km/h 44 % 0 in /  0.0 mm
20:30 74.8 °F /  23.8 °C 52.2 °F /  11.2 °C 30.1 in /  1017.8 hPa SW 4.6 mph /  7.4 km/h 4.6 mph /  7.4 km/h 45 % 0 in /  0.0 mm
20:35 74.7 °F /  23.7 °C 52 °F /  11.1 °C 30.1 in /  1017.8 hPa SW 3.5 mph /  5.6 km/h 3.6 mph /  5.8 km/h 45 % 0 in /  0.0 mm
20:40 74.3 °F /  23.5 °C 51.6 °F /  10.9 °C 30.1 in /  1017.8 hPa NW 5.8 mph /  9.3 km/h 5.8 mph /  9.3 km/h 45 % 0 in /  0.0 mm
20:45 73.9 °F /  23.3 °C 51.8 °F /  11.0 °C 30.1 in /  1017.8 hPa SW 5.8 mph /  9.3 km/h 5.8 mph /  9.3 km/h 46 % 0 in /  0.0 mm
20:50 73.8 °F /  23.2 °C 51.6 °F /  10.9 °C 30.1 in /  1017.8 hPa West 5.8 mph /  9.3 km/h 5.8 mph /  9.3 km/h 46 % 0 in /  0.0 mm
20:55 73.4 °F /  23.0 °C 52 °F /  11.1 °C 30.1 in /  1017.8 hPa SSW 4.6 mph /  7.4 km/h 4.6 mph /  7.4 km/h 47 % 0 in /  0.0 mm
21:00 73.2 °F /  22.9 °C 52.3 °F /  11.3 °C 30.1 in /  1018.8 hPa South 6.9 mph /  11.1 km/h 6.9 mph /  11.1 km/h 48 % 0 in /  0.0 mm
21:05 72.9 °F /  22.7 °C 52 °F /  11.1 °C 30.1 in /  1018.8 hPa SW 5.8 mph /  9.3 km/h 5.8 mph /  9.3 km/h 48 % 0 in /  0.0 mm
21:10 72.7 °F /  22.6 °C 52 °F /  11.1 °C 30.1 in /  1018.8 hPa SW 4.6 mph /  7.4 km/h 4.6 mph /  7.4 km/h 48 % 0 in /  0.0 mm
21:11 72.7 °F /  22.6 °C 52 °F /  11.1 °C 30.1 in /  1018.8 hPa WSW 3.8 mph /  6.1 km/h 3.8 mph /  6.1 km/h 48 % 0 in /  0.0 mm
21:15 65.5 °F /  18.6 °C 53.4 °F /  11.9 °C 30.1 in /  1019.9 hPa WSW 1 mph /  1.6 km/h 3 mph /  4.8 km/h 65 % 0 in /  0.0 mm
21:16 72.5 °F /  22.5 °C 52.2 °F /  11.2 °C 30.1 in /  1018.8 hPa SSW 5.8 mph /  9.3 km/h 5.8 mph /  9.3 km/h 49 % 0 in /  0.0 mm
21:21 72.3 °F /  22.4 °C 52.2 °F /  11.2 °C 30.1 in /  1018.8 hPa SSW 4.6 mph /  7.4 km/h 4.6 mph /  7.4 km/h 49 % 0 in /  0.0 mm
21:25 65.3 °F /  18.5 °C 54.1 °F /  12.3 °C 30.1 in /  1019.9 hPa Calm   2 mph /  3.2 km/h 67 % 0 in /  0.0 mm
21:26 72.1 °F /  22.3 °C 52.5 °F /  11.4 °C 30.1 in /  1018.8 hPa South 4.6 mph /  7.4 km/h 4.6 mph /  7.4 km/h 50 % 0 in /  0.0 mm
21:31 72 °F /  22.2 °C 52.3 °F /  11.3 °C 30.1 in /  1018.8 hPa SW 3.5 mph /  5.6 km/h 3.5 mph /  5.6 km/h 50 % 0 in /  0.0 mm
21:35 65.1 °F /  18.4 °C 54 °F /  12.2 °C 30.1 in /  1018.8 hPa Calm     67 % 0 in /  0.0 mm
21:36 71.8 °F /  22.1 °C 52.7 °F /  11.5 °C 30.1 in /  1018.8 hPa SW 4.6 mph /  7.4 km/h 4.6 mph /  7.4 km/h 51 % 0 in /  0.0 mm
21:41 71.6 °F /  22.0 °C 52.5 °F /  11.4 °C 30.1 in /  1018.8 hPa SW 4.3 mph /  6.9 km/h 4.3 mph /  6.9 km/h 51 % 0 in /  0.0 mm
21:45 65.3 °F /  18.5 °C 54.5 °F /  12.5 °C 30.1 in /  1018.8 hPa SE 1 mph /  1.6 km/h 2 mph /  3.2 km/h 68 % 0 in /  0.0 mm
21:46 71.4 °F /  21.9 °C 52.3 °F /  11.3 °C 30.1 in /  1018.8 hPa SW 5.8 mph /  9.3 km/h 5.8 mph /  9.3 km/h 51 % 0 in /  0.0 mm
21:51 71.4 °F /  21.9 °C 52.9 °F /  11.6 °C 30.1 in /  1018.8 hPa WSW 4.6 mph /  7.4 km/h 4.6 mph /  7.4 km/h 52 % 0 in /  0.0 mm
21:55 65.5 °F /  18.6 °C 54.7 °F /  12.6 °C 30.1 in /  1018.8 hPa NE 1 mph /  1.6 km/h 1 mph /  1.6 km/h 68 % 0 in /  0.0 mm
21:56 71.2 °F /  21.8 °C 52.7 °F /  11.5 °C 30.1 in /  1018.8 hPa SSW 3.5 mph /  5.6 km/h 3.5 mph /  5.6 km/h 52 % 0 in /  0.0 mm
22:01 71.1 °F /  21.7 °C 53.1 °F /  11.7 °C 30.1 in /  1019.9 hPa SW 4.7 mph /  7.6 km/h 4.7 mph /  7.6 km/h 53 % 0 in /  0.0 mm
22:05 65.3 °F /  18.5 °C 54.5 °F /  12.5 °C 30.1 in /  1018.8 hPa NNE 1 mph /  1.6 km/h 1 mph /  1.6 km/h 68 % 0 in /  0.0 mm
22:06 71.1 °F /  21.7 °C 53.1 °F /  11.7 °C 30.1 in /  1019.9 hPa WSW 5.8 mph /  9.3 km/h 5.8 mph /  9.3 km/h 53 % 0 in /  0.0 mm
22:11 70.7 °F /  21.5 °C 53.2 °F /  11.8 °C 30.1 in /  1019.9 hPa WSW 4.6 mph /  7.4 km/h 4.6 mph /  7.4 km/h 54 % 0 in /  0.0 mm
22:15 64.9 °F /  18.3 °C 54.1 °F /  12.3 °C 30.1 in /  1018.8 hPa Calm   2 mph /  3.2 km/h 68 % 0 in /  0.0 mm
22:16 70.7 °F /  21.5 °C 53.2 °F /  11.8 °C 30.1 in /  1019.9 hPa SW 2.3 mph /  3.7 km/h 2.4 mph /  3.9 km/h 54 % 0 in /  0.0 mm
22:21 70.5 °F /  21.4 °C 53.1 °F /  11.7 °C 30.1 in /  1019.9 hPa WSW 5.8 mph /  9.3 km/h 5.8 mph /  9.3 km/h 54 % 0 in /  0.0 mm
22:25 64.2 °F /  17.9 °C 53.1 °F /  11.7 °C 30.1 in /  1018.8 hPa WSW 2 mph /  3.2 km/h 2 mph /  3.2 km/h 67 % 0 in /  0.0 mm
22:26 70.3 °F /  21.3 °C 53.4 °F /  11.9 °C 30.1 in /  1019.9 hPa SW 2.4 mph /  3.9 km/h 2.4 mph /  3.9 km/h 55 % 0 in /  0.0 mm
22:31 70.3 °F /  21.3 °C 53.4 °F /  11.9 °C 30.1 in /  1019.9 hPa SSW 3.5 mph /  5.6 km/h 3.5 mph /  5.6 km/h 55 % 0 in /  0.0 mm
22:35 64.2 °F /  17.9 °C 53.4 °F /  11.9 °C 30.1 in /  1018.8 hPa Calm     68 % 0 in /  0.0 mm
22:36 70.2 °F /  21.2 °C 53.2 °F /  11.8 °C 30.1 in /  1019.9 hPa West 2.3 mph /  3.7 km/h 2.4 mph /  3.9 km/h 55 % 0 in /  0.0 mm
22:41 70.2 °F /  21.2 °C 53.8 °F /  12.1 °C 30.1 in /  1019.9 hPa WSW 2.4 mph /  3.9 km/h 2.4 mph /  3.9 km/h 56 % 0 in /  0.0 mm
22:45 64.2 °F /  17.9 °C 53.4 °F /  11.9 °C 30.1 in /  1018.8 hPa Calm     68 % 0 in /  0.0 mm
22:46 70 °F /  21.1 °C 53.6 °F /  12.0 °C 30.1 in /  1019.9 hPa WSW 2.3 mph /  3.7 km/h 2.3 mph /  3.7 km/h 56 % 0 in /  0.0 mm
22:51 70 °F /  21.1 °C 53.6 °F /  12.0 °C 30.1 in /  1019.9 hPa WSW 2.3 mph /  3.7 km/h 2.3 mph /  3.7 km/h 56 % 0 in /  0.0 mm
22:55 64.6 °F /  18.1 °C 53.8 °F /  12.1 °C 30.1 in /  1018.8 hPa WSW 1 mph /  1.6 km/h 2 mph /  3.2 km/h 68 % 0 in /  0.0 mm
22:56 69.8 °F /  21.0 °C 54 °F /  12.2 °C 30.1 in /  1019.9 hPa SW 2.3 mph /  3.7 km/h 2.3 mph /  3.7 km/h 57 % 0 in /  0.0 mm
23:01 69.8 °F /  21.0 °C 54 °F /  12.2 °C 30.1 in /  1019.9 hPa SW 2.3 mph /  3.7 km/h 2.3 mph /  3.7 km/h 57 % 0 in /  0.0 mm
23:05 64.6 °F /  18.1 °C 53.8 °F /  12.1 °C 30.1 in /  1018.8 hPa Calm   1 mph /  1.6 km/h 68 % 0 in /  0.0 mm
23:06 69.8 °F /  21.0 °C 54 °F /  12.2 °C 30.1 in /  1019.9 hPa Calm     57 % 0 in /  0.0 mm
23:11 69.6 °F /  20.9 °C 53.8 °F /  12.1 °C 30.1 in /  1019.9 hPa West 2.3 mph /  3.7 km/h 2.3 mph /  3.7 km/h 57 % 0 in /  0.0 mm
23:15 64.6 °F /  18.1 °C 54.1 °F /  12.3 °C 30.1 in /  1018.8 hPa Calm     69 % 0 in /  0.0 mm
23:16 69.4 °F /  20.8 °C 54 °F /  12.2 °C 30.1 in /  1019.9 hPa Calm     58 % 0 in /  0.0 mm
23:21 69.4 °F /  20.8 °C 54 °F /  12.2 °C 30.1 in /  1019.9 hPa SW 1.2 mph /  1.9 km/h 1.2 mph /  1.9 km/h 58 % 0 in /  0.0 mm
23:25 64.4 °F /  18.0 °C 54 °F /  12.2 °C 30.1 in /  1018.8 hPa Calm     69 % 0 in /  0.0 mm
23:26 69.4 °F /  20.8 °C 54 °F /  12.2 °C 30.1 in /  1019.9 hPa Calm     58 % 0 in /  0.0 mm
23:31 69.3 °F /  20.7 °C 53.8 °F /  12.1 °C 30.1 in /  1019.9 hPa NNE 1.6 mph /  2.6 km/h 1.6 mph /  2.6 km/h 58 % 0 in /  0.0 mm
23:35 64.2 °F /  17.9 °C 53.8 °F /  12.1 °C 30.1 in /  1017.8 hPa Calm     69 % 0 in /  0.0 mm
23:36 69.1 °F /  20.6 °C 54.1 °F /  12.3 °C 30.1 in /  1019.9 hPa NNE 1.2 mph /  1.9 km/h   59 % 0 in /  0.0 mm
23:41 69.1 °F /  20.6 °C 54.1 °F /  12.3 °C 30.1 in /  1019.9 hPa Calm     59 % 0 in /  0.0 mm
23:45 63.1 °F /  17.3 °C 52.3 °F /  11.3 °C 30.1 in /  1017.8 hPa Calm   2 mph /  3.2 km/h 68 % 0 in /  0.0 mm
23:46 68.9 °F /  20.5 °C 53.4 °F /  11.9 °C 30.1 in /  1019.9 hPa Calm     58 % 0 in /  0.0 mm
23:51 68.9 °F /  20.5 °C 54 °F /  12.2 °C 30.1 in /  1019.9 hPa Calm     59 % 0 in /  0.0 mm
23:55 63.1 °F /  17.3 °C 52.9 °F /  11.6 °C 30.1 in /  1018.8 hPa Calm     69 % 0 in /  0.0 mm
23:56 68.9 °F /  20.5 °C 54 °F /  12.2 °C 30.1 in /  1019.9 hPa Calm     59 % 0 in /  0.0 mm
Meteo Sesrovires
Elogis d' Weather Underground - 3.5 mb

Guio original per  Jim McMurry - jmcmurry@mwt.net Adaptat per a la plantilla per  Wim van der Kuil - Leuven-Template.eu

Trobareu la nostra informacio del temps tambe a:

Weather Underground

AWEKAS